sensor_id;sensor_type;location;lat;lon;timestamp;pressure;altitude;pressure_sealevel;temperature;humidity
74079;BME280;62437;51.544;-3.276;2023-01-26T00:01:16;102535.21;;;-1.80;79.22
74079;BME280;62437;51.544;-3.276;2023-01-26T00:03:40;102531.42;;;-1.06;74.59
74079;BME280;62437;51.544;-3.276;2023-01-26T00:06:07;102526.34;;;-1.36;74.57
74079;BME280;62437;51.544;-3.276;2023-01-26T00:08:35;102527.21;;;-1.34;72.96
74079;BME280;62437;51.544;-3.276;2023-01-26T00:11:02;102534.08;;;-0.96;71.41
74079;BME280;62437;51.544;-3.276;2023-01-26T00:13:22;102534.79;;;-1.34;72.75
74079;BME280;62437;51.544;-3.276;2023-01-26T00:15:48;102535.66;;;-1.11;72.75
74079;BME280;62437;51.544;-3.276;2023-01-26T00:18:13;102535.82;;;-1.15;72.40
74079;BME280;62437;51.544;-3.276;2023-01-26T00:20:39;102531.70;;;-1.10;70.76
74079;BME280;62437;51.544;-3.276;2023-01-26T00:23:04;102530.52;;;-0.49;69.13
74079;BME280;62437;51.544;-3.276;2023-01-26T00:25:30;102530.47;;;-0.49;69.42
74079;BME280;62437;51.544;-3.276;2023-01-26T00:27:56;102529.11;;;-0.40;69.26
74079;BME280;62437;51.544;-3.276;2023-01-26T00:30:20;102523.88;;;-1.26;69.74
74079;BME280;62437;51.544;-3.276;2023-01-26T00:32:45;102516.07;;;-0.81;68.75
74079;BME280;62437;51.544;-3.276;2023-01-26T00:35:11;102514.20;;;-1.04;70.10
74079;BME280;62437;51.544;-3.276;2023-01-26T00:37:36;102522.53;;;-1.55;73.01
74079;BME280;62437;51.544;-3.276;2023-01-26T00:40:03;102533.00;;;-1.55;73.15
74079;BME280;62437;51.544;-3.276;2023-01-26T00:42:28;102528.74;;;-1.50;73.83
74079;BME280;62437;51.544;-3.276;2023-01-26T00:44:54;102527.65;;;-2.21;78.32
74079;BME280;62437;51.544;-3.276;2023-01-26T00:47:19;102523.14;;;-1.54;75.63
74079;BME280;62437;51.544;-3.276;2023-01-26T00:49:44;102518.60;;;-1.69;76.64
74079;BME280;62437;51.544;-3.276;2023-01-26T00:52:11;102516.16;;;-1.55;74.47
74079;BME280;62437;51.544;-3.276;2023-01-26T00:54:36;102518.61;;;-1.39;73.07
74079;BME280;62437;51.544;-3.276;2023-01-26T00:57:02;102524.78;;;-1.45;74.02
74079;BME280;62437;51.544;-3.276;2023-01-26T00:59:28;102528.44;;;-1.65;74.52
74079;BME280;62437;51.544;-3.276;2023-01-26T01:01:54;102522.47;;;-1.51;74.68
74079;BME280;62437;51.544;-3.276;2023-01-26T01:04:19;102525.17;;;-1.43;73.31
74079;BME280;62437;51.544;-3.276;2023-01-26T01:06:45;102520.34;;;-1.31;72.53
74079;BME280;62437;51.544;-3.276;2023-01-26T01:09:12;102519.66;;;-1.00;71.56
74079;BME280;62437;51.544;-3.276;2023-01-26T01:11:37;102519.09;;;-1.20;70.49
74079;BME280;62437;51.544;-3.276;2023-01-26T01:14:03;102513.07;;;-1.01;70.14
74079;BME280;62437;51.544;-3.276;2023-01-26T01:16:29;102515.95;;;-0.73;68.50
74079;BME280;62437;51.544;-3.276;2023-01-26T01:18:55;102516.33;;;-0.83;68.72
74079;BME280;62437;51.544;-3.276;2023-01-26T01:21:21;102511.99;;;-0.83;69.12
74079;BME280;62437;51.544;-3.276;2023-01-26T01:23:45;102511.96;;;-0.76;68.45
74079;BME280;62437;51.544;-3.276;2023-01-26T01:26:12;102513.69;;;-1.30;72.17
74079;BME280;62437;51.544;-3.276;2023-01-26T01:28:37;102515.29;;;-1.34;70.42
74079;BME280;62437;51.544;-3.276;2023-01-26T01:31:03;102518.15;;;-1.63;72.19
74079;BME280;62437;51.544;-3.276;2023-01-26T01:33:27;102518.94;;;-2.03;72.99
74079;BME280;62437;51.544;-3.276;2023-01-26T01:35:56;102524.50;;;-1.75;73.15
74079;BME280;62437;51.544;-3.276;2023-01-26T01:38:18;102525.98;;;-2.31;77.99
74079;BME280;62437;51.544;-3.276;2023-01-26T01:40:44;102526.18;;;-2.13;73.87
74079;BME280;62437;51.544;-3.276;2023-01-26T01:43:11;102525.55;;;-1.69;71.47
74079;BME280;62437;51.544;-3.276;2023-01-26T01:45:40;102520.34;;;-1.92;72.54
74079;BME280;62437;51.544;-3.276;2023-01-26T01:48:01;102521.82;;;-2.04;75.29
74079;BME280;62437;51.544;-3.276;2023-01-26T01:50:25;102526.76;;;-1.91;72.16
74079;BME280;62437;51.544;-3.276;2023-01-26T01:52:51;102522.15;;;-1.90;74.04
74079;BME280;62437;51.544;-3.276;2023-01-26T01:55:16;102522.74;;;-1.97;73.56
74079;BME280;62437;51.544;-3.276;2023-01-26T01:57:46;102522.74;;;-1.69;74.18
74079;BME280;62437;51.544;-3.276;2023-01-26T02:00:10;102525.16;;;-1.98;74.21
74079;BME280;62437;51.544;-3.276;2023-01-26T02:02:32;102519.58;;;-1.92;73.41
74079;BME280;62437;51.544;-3.276;2023-01-26T02:05:01;102520.67;;;-1.83;72.92
74079;BME280;62437;51.544;-3.276;2023-01-26T02:07:23;102524.45;;;-1.49;72.27
74079;BME280;62437;51.544;-3.276;2023-01-26T02:09:49;102521.02;;;-1.82;72.58
74079;BME280;62437;51.544;-3.276;2023-01-26T02:12:18;102519.48;;;-1.92;74.51
74079;BME280;62437;51.544;-3.276;2023-01-26T02:14:40;102514.97;;;-2.43;77.98
74079;BME280;62437;51.544;-3.276;2023-01-26T02:17:04;102513.31;;;-2.13;78.10
74079;BME280;62437;51.544;-3.276;2023-01-26T02:19:38;102512.93;;;-1.93;75.12
74079;BME280;62437;51.544;-3.276;2023-01-26T02:21:59;102514.37;;;-2.50;80.74
74079;BME280;62437;51.544;-3.276;2023-01-26T02:24:25;102514.87;;;-2.07;75.03
74079;BME280;62437;51.544;-3.276;2023-01-26T02:26:46;102516.16;;;-2.22;77.48
74079;BME280;62437;51.544;-3.276;2023-01-26T02:29:13;102513.89;;;-2.25;76.81
74079;BME280;62437;51.544;-3.276;2023-01-26T02:31:37;102512.24;;;-2.19;75.89
74079;BME280;62437;51.544;-3.276;2023-01-26T02:34:03;102521.05;;;-1.96;74.99
74079;BME280;62437;51.544;-3.276;2023-01-26T02:36:30;102526.60;;;-2.19;75.24
74079;BME280;62437;51.544;-3.276;2023-01-26T02:39:02;102528.33;;;-2.24;74.73
74079;BME280;62437;51.544;-3.276;2023-01-26T02:41:19;102524.96;;;-2.07;74.89
74079;BME280;62437;51.544;-3.276;2023-01-26T02:43:45;102527.94;;;-1.98;73.78
74079;BME280;62437;51.544;-3.276;2023-01-26T02:46:09;102528.68;;;-1.81;73.11
74079;BME280;62437;51.544;-3.276;2023-01-26T02:48:35;102526.71;;;-1.78;72.32
74079;BME280;62437;51.544;-3.276;2023-01-26T02:51:00;102524.37;;;-1.74;72.09
74079;BME280;62437;51.544;-3.276;2023-01-26T02:53:26;102531.17;;;-1.97;73.46
74079;BME280;62437;51.544;-3.276;2023-01-26T02:55:51;102536.69;;;-1.93;72.43
74079;BME280;62437;51.544;-3.276;2023-01-26T02:58:17;102542.81;;;-1.35;71.32
74079;BME280;62437;51.544;-3.276;2023-01-26T03:00:42;102542.43;;;-1.33;70.32
74079;BME280;62437;51.544;-3.276;2023-01-26T03:03:12;102541.74;;;-1.88;72.52
74079;BME280;62437;51.544;-3.276;2023-01-26T03:05:34;102542.76;;;-2.56;79.55
74079;BME280;62437;51.544;-3.276;2023-01-26T03:07:59;102541.71;;;-2.10;74.71
74079;BME280;62437;51.544;-3.276;2023-01-26T03:10:24;102536.66;;;-2.46;74.78
74079;BME280;62437;51.544;-3.276;2023-01-26T03:12:50;102536.86;;;-2.30;74.09
74079;BME280;62437;51.544;-3.276;2023-01-26T03:15:15;102536.92;;;-2.19;75.01
74079;BME280;62437;51.544;-3.276;2023-01-26T03:17:41;102541.88;;;-2.03;73.95
74079;BME280;62437;51.544;-3.276;2023-01-26T03:20:08;102540.12;;;-1.97;74.35
74079;BME280;62437;51.544;-3.276;2023-01-26T03:22:32;102539.89;;;-2.37;74.75
74079;BME280;62437;51.544;-3.276;2023-01-26T03:24:57;102541.10;;;-2.30;76.78
74079;BME280;62437;51.544;-3.276;2023-01-26T03:27:23;102541.75;;;-2.15;77.59
74079;BME280;62437;51.544;-3.276;2023-01-26T03:29:48;102538.80;;;-2.47;78.02
74079;BME280;62437;51.544;-3.276;2023-01-26T03:32:14;102540.08;;;-1.98;74.99
74079;BME280;62437;51.544;-3.276;2023-01-26T03:34:39;102538.15;;;-1.69;73.14
74079;BME280;62437;51.544;-3.276;2023-01-26T03:37:05;102542.02;;;-2.09;73.35
74079;BME280;62437;51.544;-3.276;2023-01-26T03:39:30;102556.19;;;-1.76;72.24
74079;BME280;62437;51.544;-3.276;2023-01-26T03:41:56;102559.24;;;-1.70;72.72
74079;BME280;62437;51.544;-3.276;2023-01-26T03:44:21;102560.73;;;-2.28;72.92
74079;BME280;62437;51.544;-3.276;2023-01-26T03:46:47;102566.37;;;-1.89;71.64
74079;BME280;62437;51.544;-3.276;2023-01-26T03:49:12;102575.03;;;-1.62;71.06
74079;BME280;62437;51.544;-3.276;2023-01-26T03:51:38;102577.94;;;-2.12;71.32
74079;BME280;62437;51.544;-3.276;2023-01-26T03:54:03;102578.69;;;-2.20;71.93
74079;BME280;62437;51.544;-3.276;2023-01-26T03:56:29;102576.02;;;-1.78;71.41
74079;BME280;62437;51.544;-3.276;2023-01-26T03:58:55;102579.40;;;-1.97;71.59
74079;BME280;62437;51.544;-3.276;2023-01-26T04:01:21;102578.68;;;-2.07;72.12
74079;BME280;62437;51.544;-3.276;2023-01-26T04:03:46;102578.70;;;-1.89;71.36
74079;BME280;62437;51.544;-3.276;2023-01-26T04:06:10;102585.47;;;-1.72;70.76
74079;BME280;62437;51.544;-3.276;2023-01-26T04:08:35;102581.13;;;-2.03;71.03
74079;BME280;62437;51.544;-3.276;2023-01-26T04:11:01;102579.64;;;-2.09;71.97
74079;BME280;62437;51.544;-3.276;2023-01-26T04:13:26;102576.13;;;-1.90;71.70
74079;BME280;62437;51.544;-3.276;2023-01-26T04:15:52;102580.29;;;-2.01;71.59
74079;BME280;62437;51.544;-3.276;2023-01-26T04:18:17;102578.35;;;-1.93;71.22
74079;BME280;62437;51.544;-3.276;2023-01-26T04:20:43;102585.09;;;-1.94;70.85
74079;BME280;62437;51.544;-3.276;2023-01-26T04:23:16;102574.35;;;-1.85;70.46
74079;BME280;62437;51.544;-3.276;2023-01-26T04:25:34;102576.28;;;-1.93;70.93
74079;BME280;62437;51.544;-3.276;2023-01-26T04:27:59;102581.26;;;-2.15;71.30
74079;BME280;62437;51.544;-3.276;2023-01-26T04:30:25;102582.63;;;-2.38;71.77
74079;BME280;62437;51.544;-3.276;2023-01-26T04:32:50;102586.06;;;-2.41;71.89
74079;BME280;62437;51.544;-3.276;2023-01-26T04:35:15;102581.02;;;-2.11;72.41
74079;BME280;62437;51.544;-3.276;2023-01-26T04:37:40;102582.20;;;-2.44;72.16
74079;BME280;62437;51.544;-3.276;2023-01-26T04:40:07;102584.02;;;-2.43;72.32
74079;BME280;62437;51.544;-3.276;2023-01-26T04:42:31;102586.95;;;-2.49;72.02
74079;BME280;62437;51.544;-3.276;2023-01-26T04:44:57;102591.69;;;-2.35;71.94
74079;BME280;62437;51.544;-3.276;2023-01-26T04:47:22;102585.93;;;-2.38;72.48
74079;BME280;62437;51.544;-3.276;2023-01-26T04:49:48;102591.74;;;-2.16;72.41
74079;BME280;62437;51.544;-3.276;2023-01-26T04:52:13;102595.14;;;-2.16;72.13
74079;BME280;62437;51.544;-3.276;2023-01-26T04:54:39;102597.42;;;-2.15;71.47
74079;BME280;62437;51.544;-3.276;2023-01-26T04:57:04;102600.86;;;-1.99;71.53
74079;BME280;62437;51.544;-3.276;2023-01-26T04:59:30;102609.18;;;-2.11;70.10
74079;BME280;62437;51.544;-3.276;2023-01-26T05:01:55;102613.07;;;-2.09;71.01
74079;BME280;62437;51.544;-3.276;2023-01-26T05:04:20;102612.50;;;-1.99;70.80
74079;BME280;62437;51.544;-3.276;2023-01-26T05:06:46;102608.69;;;-2.22;70.42
74079;BME280;62437;51.544;-3.276;2023-01-26T05:09:11;102602.54;;;-2.53;72.08
74079;BME280;62437;51.544;-3.276;2023-01-26T05:11:36;102601.91;;;-2.16;70.99
74079;BME280;62437;51.544;-3.276;2023-01-26T05:14:02;102605.68;;;-2.24;70.83
74079;BME280;62437;51.544;-3.276;2023-01-26T05:16:27;102603.80;;;-2.01;70.34
74079;BME280;62437;51.544;-3.276;2023-01-26T05:18:53;102603.16;;;-1.75;68.96
74079;BME280;62437;51.544;-3.276;2023-01-26T05:21:18;102603.14;;;-1.72;68.94
74079;BME280;62437;51.544;-3.276;2023-01-26T05:23:44;102604.98;;;-1.90;68.31
74079;BME280;62437;51.544;-3.276;2023-01-26T05:26:09;102600.94;;;-1.89;67.72
74079;BME280;62437;51.544;-3.276;2023-01-26T05:28:35;102600.62;;;-2.02;68.58
74079;BME280;62437;51.544;-3.276;2023-01-26T05:31:00;102600.46;;;-2.05;69.62
74079;BME280;62437;51.544;-3.276;2023-01-26T05:33:27;102603.01;;;-2.28;69.57
74079;BME280;62437;51.544;-3.276;2023-01-26T05:35:52;102599.24;;;-1.94;70.24
74079;BME280;62437;51.544;-3.276;2023-01-26T05:38:17;102595.51;;;-2.37;70.59
74079;BME280;62437;51.544;-3.276;2023-01-26T05:40:42;102598.90;;;-2.15;70.18
74079;BME280;62437;51.544;-3.276;2023-01-26T05:43:08;102599.29;;;-2.29;70.39
74079;BME280;62437;51.544;-3.276;2023-01-26T05:45:32;102597.01;;;-2.38;69.76
74079;BME280;62437;51.544;-3.276;2023-01-26T05:47:58;102596.41;;;-2.32;70.10
74079;BME280;62437;51.544;-3.276;2023-01-26T05:50:23;102599.56;;;-2.17;71.12
74079;BME280;62437;51.544;-3.276;2023-01-26T05:52:49;102602.62;;;-2.53;70.43
74079;BME280;62437;51.544;-3.276;2023-01-26T05:55:14;102601.88;;;-2.57;70.96
74079;BME280;62437;51.544;-3.276;2023-01-26T05:57:40;102601.00;;;-2.09;69.90
74079;BME280;62437;51.544;-3.276;2023-01-26T06:00:07;102603.56;;;-2.13;69.56
74079;BME280;62437;51.544;-3.276;2023-01-26T06:02:31;102608.78;;;-2.24;68.89
74079;BME280;62437;51.544;-3.276;2023-01-26T06:04:56;102609.64;;;-2.14;69.85
74079;BME280;62437;51.544;-3.276;2023-01-26T06:07:22;102610.95;;;-2.15;69.43
74079;BME280;62437;51.544;-3.276;2023-01-26T06:09:47;102606.83;;;-2.06;68.93
74079;BME280;62437;51.544;-3.276;2023-01-26T06:12:15;102606.21;;;-2.27;68.44
74079;BME280;62437;51.544;-3.276;2023-01-26T06:14:38;102613.23;;;-2.44;69.19
74079;BME280;62437;51.544;-3.276;2023-01-26T06:17:03;102617.54;;;-2.44;69.17
74079;BME280;62437;51.544;-3.276;2023-01-26T06:19:28;102616.40;;;-2.16;68.93
74079;BME280;62437;51.544;-3.276;2023-01-26T06:21:54;102614.71;;;-2.17;68.50
74079;BME280;62437;51.544;-3.276;2023-01-26T06:24:19;102618.24;;;-2.28;68.66
74079;BME280;62437;51.544;-3.276;2023-01-26T06:26:46;102620.65;;;-2.27;68.73
74079;BME280;62437;51.544;-3.276;2023-01-26T06:29:10;102618.16;;;-2.11;67.73
74079;BME280;62437;51.544;-3.276;2023-01-26T06:31:36;102622.95;;;-2.27;68.84
74079;BME280;62437;51.544;-3.276;2023-01-26T06:34:01;102630.99;;;-2.07;68.09
74079;BME280;62437;51.544;-3.276;2023-01-26T06:36:27;102635.91;;;-2.32;68.29
74079;BME280;62437;51.544;-3.276;2023-01-26T06:38:52;102636.53;;;-1.99;67.89
74079;BME280;62437;51.544;-3.276;2023-01-26T06:41:18;102640.10;;;-2.32;68.13
74079;BME280;62437;51.544;-3.276;2023-01-26T06:43:45;102645.11;;;-2.08;67.88
74079;BME280;62437;51.544;-3.276;2023-01-26T06:46:08;102652.58;;;-1.89;67.11
74079;BME280;62437;51.544;-3.276;2023-01-26T06:48:34;102654.52;;;-2.01;67.75
74079;BME280;62437;51.544;-3.276;2023-01-26T06:51:24;102653.43;;;-2.37;67.88
74079;BME280;62437;51.544;-3.276;2023-01-26T06:53:28;102659.73;;;-2.25;67.63
74079;BME280;62437;51.544;-3.276;2023-01-26T06:55:50;102663.52;;;-2.75;67.78
74079;BME280;62437;51.544;-3.276;2023-01-26T06:58:15;102669.50;;;-2.73;69.69
74079;BME280;62437;51.544;-3.276;2023-01-26T07:00:41;102668.88;;;-2.40;68.33
74079;BME280;62437;51.544;-3.276;2023-01-26T07:03:08;102668.18;;;-2.18;68.29
74079;BME280;62437;51.544;-3.276;2023-01-26T07:05:32;102675.00;;;-2.43;67.91
74079;BME280;62437;51.544;-3.276;2023-01-26T07:07:57;102675.24;;;-2.17;68.67
74079;BME280;62437;51.544;-3.276;2023-01-26T07:10:23;102676.10;;;-2.06;68.20
74079;BME280;62437;51.544;-3.276;2023-01-26T07:12:48;102678.81;;;-2.13;68.58
74079;BME280;62437;51.544;-3.276;2023-01-26T07:15:13;102682.73;;;-2.29;68.43
74079;BME280;62437;51.544;-3.276;2023-01-26T07:17:39;102685.77;;;-2.08;68.70
74079;BME280;62437;51.544;-3.276;2023-01-26T07:20:05;102682.82;;;-2.11;68.66
74079;BME280;62437;51.544;-3.276;2023-01-26T07:22:29;102681.37;;;-1.92;68.71
74079;BME280;62437;51.544;-3.276;2023-01-26T07:24:55;102684.99;;;-2.57;69.30
74079;BME280;62437;51.544;-3.276;2023-01-26T07:27:20;102682.29;;;-1.90;68.92
74079;BME280;62437;51.544;-3.276;2023-01-26T07:29:46;102684.55;;;-1.83;68.67
74079;BME280;62437;51.544;-3.276;2023-01-26T07:32:19;102685.40;;;-1.99;68.89
74079;BME280;62437;51.544;-3.276;2023-01-26T07:34:37;102685.25;;;-2.06;68.57
74079;BME280;62437;51.544;-3.276;2023-01-26T07:37:02;102687.09;;;-2.34;69.47
74079;BME280;62437;51.544;-3.276;2023-01-26T07:39:28;102692.25;;;-2.37;70.43
74079;BME280;62437;51.544;-3.276;2023-01-26T07:41:53;102698.42;;;-2.16;69.54
74079;BME280;62437;51.544;-3.276;2023-01-26T07:44:19;102699.02;;;-1.79;69.14
74079;BME280;62437;51.544;-3.276;2023-01-26T07:46:43;102698.90;;;-2.23;70.43
74079;BME280;62437;51.544;-3.276;2023-01-26T07:49:09;102699.50;;;-2.42;71.42
74079;BME280;62437;51.544;-3.276;2023-01-26T07:51:36;102697.64;;;-2.31;71.52
74079;BME280;62437;51.544;-3.276;2023-01-26T07:54:02;102698.65;;;-2.00;71.65
74079;BME280;62437;51.544;-3.276;2023-01-26T07:56:25;102702.50;;;-1.85;70.99
74079;BME280;62437;51.544;-3.276;2023-01-26T07:58:53;102703.37;;;-2.26;71.33
74079;BME280;62437;51.544;-3.276;2023-01-26T08:01:16;102708.01;;;-1.83;71.97
74079;BME280;62437;51.544;-3.276;2023-01-26T08:03:42;102710.59;;;-2.30;72.24
74079;BME280;62437;51.544;-3.276;2023-01-26T08:06:07;102719.31;;;-1.87;71.43
74079;BME280;62437;51.544;-3.276;2023-01-26T08:08:33;102721.28;;;-2.06;71.82
74079;BME280;62437;51.544;-3.276;2023-01-26T08:10:58;102723.55;;;-2.11;72.18
74079;BME280;62437;51.544;-3.276;2023-01-26T08:13:23;102723.81;;;-1.99;72.78
74079;BME280;62437;51.544;-3.276;2023-01-26T08:15:49;102722.27;;;-1.75;72.70
74079;BME280;62437;51.544;-3.276;2023-01-26T08:18:14;102725.71;;;-1.78;72.51
74079;BME280;62437;51.544;-3.276;2023-01-26T08:20:39;102733.49;;;-2.20;73.08
74079;BME280;62437;51.544;-3.276;2023-01-26T08:23:05;102734.47;;;-1.85;72.93
74079;BME280;62437;51.544;-3.276;2023-01-26T08:25:30;102736.05;;;-2.03;73.05
74079;BME280;62437;51.544;-3.276;2023-01-26T08:27:56;102736.61;;;-1.94;73.42
74079;BME280;62437;51.544;-3.276;2023-01-26T08:30:21;102730.11;;;-2.18;73.15
74079;BME280;62437;51.544;-3.276;2023-01-26T08:32:47;102734.61;;;-2.08;72.91
74079;BME280;62437;51.544;-3.276;2023-01-26T08:35:12;102738.98;;;-1.92;72.92
74079;BME280;62437;51.544;-3.276;2023-01-26T08:37:38;102745.78;;;-1.88;72.62
74079;BME280;62437;51.544;-3.276;2023-01-26T08:40:03;102753.42;;;-1.81;73.34
74079;BME280;62437;51.544;-3.276;2023-01-26T08:42:28;102752.89;;;-2.09;73.54
74079;BME280;62437;51.544;-3.276;2023-01-26T08:44:53;102754.90;;;-1.97;73.31
74079;BME280;62437;51.544;-3.276;2023-01-26T08:47:19;102758.12;;;-2.03;73.57
74079;BME280;62437;51.544;-3.276;2023-01-26T08:49:44;102757.44;;;-1.95;73.39
74079;BME280;62437;51.544;-3.276;2023-01-26T08:52:10;102756.16;;;-2.15;73.46
74079;BME280;62437;51.544;-3.276;2023-01-26T08:54:35;102753.70;;;-2.15;74.02
74079;BME280;62437;51.544;-3.276;2023-01-26T08:57:01;102746.77;;;-2.06;73.85
74079;BME280;62437;51.544;-3.276;2023-01-26T08:59:26;102747.35;;;-2.15;74.23
74079;BME280;62437;51.544;-3.276;2023-01-26T09:01:53;102748.70;;;-2.26;74.70
74079;BME280;62437;51.544;-3.276;2023-01-26T09:04:17;102748.61;;;-2.20;74.52
74079;BME280;62437;51.544;-3.276;2023-01-26T09:06:43;102754.31;;;-2.00;74.69
74079;BME280;62437;51.544;-3.276;2023-01-26T09:09:07;102758.82;;;-2.02;75.05
74079;BME280;62437;51.544;-3.276;2023-01-26T09:11:34;102757.08;;;-2.07;74.74
74079;BME280;62437;51.544;-3.276;2023-01-26T09:13:59;102756.17;;;-1.98;74.53
74079;BME280;62437;51.544;-3.276;2023-01-26T09:16:24;102756.42;;;-1.74;74.52
74079;BME280;62437;51.544;-3.276;2023-01-26T09:18:49;102757.60;;;-1.61;74.82
74079;BME280;62437;51.544;-3.276;2023-01-26T09:21:15;102756.13;;;-1.99;74.88
74079;BME280;62437;51.544;-3.276;2023-01-26T09:23:40;102756.67;;;-1.98;75.01
74079;BME280;62437;51.544;-3.276;2023-01-26T09:26:06;102755.64;;;-2.00;75.09
74079;BME280;62437;51.544;-3.276;2023-01-26T09:28:36;102754.29;;;-1.88;74.73
74079;BME280;62437;51.544;-3.276;2023-01-26T09:31:02;102751.39;;;-1.76;75.24
74079;BME280;62437;51.544;-3.276;2023-01-26T09:33:22;102751.80;;;-1.66;75.07
74079;BME280;62437;51.544;-3.276;2023-01-26T09:35:48;102751.34;;;-1.86;75.05
74079;BME280;62437;51.544;-3.276;2023-01-26T09:38:12;102757.04;;;-1.78;74.95
74079;BME280;62437;51.544;-3.276;2023-01-26T09:40:44;102758.90;;;-1.69;74.77
74079;BME280;62437;51.544;-3.276;2023-01-26T09:43:16;102757.65;;;-1.50;74.89
74079;BME280;62437;51.544;-3.276;2023-01-26T09:45:34;102759.31;;;-1.95;74.47
74079;BME280;62437;51.544;-3.276;2023-01-26T09:48:10;102756.69;;;-1.35;74.46
74079;BME280;62437;51.544;-3.276;2023-01-26T09:50:25;102751.31;;;-1.43;74.36
74079;BME280;62437;51.544;-3.276;2023-01-26T09:52:52;102759.35;;;-1.48;74.46
74079;BME280;62437;51.544;-3.276;2023-01-26T09:55:16;102761.07;;;-1.26;74.04
74079;BME280;62437;51.544;-3.276;2023-01-26T09:57:46;102763.35;;;-1.22;74.41
74079;BME280;62437;51.544;-3.276;2023-01-26T10:00:07;102762.24;;;-1.87;75.49
74079;BME280;62437;51.544;-3.276;2023-01-26T10:02:40;102762.90;;;-1.02;72.91
74079;BME280;62437;51.544;-3.276;2023-01-26T10:04:59;102763.01;;;-1.44;74.70
74079;BME280;62437;51.544;-3.276;2023-01-26T10:07:21;102751.64;;;-1.25;74.14
74079;BME280;62437;51.544;-3.276;2023-01-26T10:09:48;102748.62;;;-1.22;74.09
74079;BME280;62437;51.544;-3.276;2023-01-26T10:12:15;102752.02;;;-1.51;75.92
74079;BME280;62437;51.544;-3.276;2023-01-26T10:14:38;102749.34;;;-1.63;75.92
74079;BME280;62437;51.544;-3.276;2023-01-26T10:17:06;102746.63;;;-1.33;75.77
74079;BME280;62437;51.544;-3.276;2023-01-26T10:19:33;102744.88;;;-1.32;74.87
74079;BME280;62437;51.544;-3.276;2023-01-26T10:21:54;102750.50;;;-1.03;75.76
74079;BME280;62437;51.544;-3.276;2023-01-26T10:24:21;102758.50;;;-1.33;75.82
74079;BME280;62437;51.544;-3.276;2023-01-26T10:26:45;102753.74;;;-0.99;75.70
74079;BME280;62437;51.544;-3.276;2023-01-26T10:29:13;102749.13;;;-1.22;75.75
74079;BME280;62437;51.544;-3.276;2023-01-26T10:31:38;102748.63;;;-0.81;76.70
74079;BME280;62437;51.544;-3.276;2023-01-26T10:34:08;102752.57;;;-0.89;74.67
74079;BME280;62437;51.544;-3.276;2023-01-26T10:36:30;102747.11;;;-1.06;75.21
74079;BME280;62437;51.544;-3.276;2023-01-26T10:39:03;102749.76;;;-1.13;75.41
74079;BME280;62437;51.544;-3.276;2023-01-26T10:41:23;102749.09;;;-1.18;76.14
74079;BME280;62437;51.544;-3.276;2023-01-26T10:43:50;102747.71;;;-1.02;75.96
74079;BME280;62437;51.544;-3.276;2023-01-26T10:48:38;102746.59;;;-1.14;75.64
74079;BME280;62437;51.544;-3.276;2023-01-26T10:53:29;102762.96;;;-1.16;75.83
74079;BME280;62437;51.544;-3.276;2023-01-26T10:55:59;102769.58;;;-1.00;75.75
74079;BME280;62437;51.544;-3.276;2023-01-26T10:58:38;102774.83;;;-0.92;75.59
74079;BME280;62437;51.544;-3.276;2023-01-26T11:00:55;102774.10;;;-0.98;75.77
74079;BME280;62437;51.544;-3.276;2023-01-26T11:03:17;102769.36;;;-1.20;75.24
74079;BME280;62437;51.544;-3.276;2023-01-26T11:05:38;102767.70;;;-0.61;75.29
74079;BME280;62437;51.544;-3.276;2023-01-26T11:10:32;102775.51;;;-0.85;75.64
74079;BME280;62437;51.544;-3.276;2023-01-26T11:13:07;102770.65;;;-0.67;75.18
74079;BME280;62437;51.544;-3.276;2023-01-26T11:15:23;102765.39;;;-0.74;75.33
74079;BME280;62437;51.544;-3.276;2023-01-26T11:17:53;102754.67;;;-0.14;74.17
74079;BME280;62437;51.544;-3.276;2023-01-26T11:22:45;102752.22;;;-0.28;75.87
74079;BME280;62437;51.544;-3.276;2023-01-26T11:25:15;102758.87;;;-0.08;73.07
74079;BME280;62437;51.544;-3.276;2023-01-26T11:27:36;102761.04;;;0.00;73.15
74079;BME280;62437;51.544;-3.276;2023-01-26T11:32:25;102765.06;;;-0.51;75.09
74079;BME280;62437;51.544;-3.276;2023-01-26T11:34:57;102769.51;;;-0.71;75.23
74079;BME280;62437;51.544;-3.276;2023-01-26T11:39:48;102757.88;;;-0.48;74.63
74079;BME280;62437;51.544;-3.276;2023-01-26T11:42:15;102755.80;;;0.29;78.07
74079;BME280;62437;51.544;-3.276;2023-01-26T11:47:11;102753.25;;;0.00;75.98
74079;BME280;62437;51.544;-3.276;2023-01-26T11:49:35;102748.54;;;0.85;70.86
74079;BME280;62437;51.544;-3.276;2023-01-26T11:51:57;102745.83;;;0.58;70.46
74079;BME280;62437;51.544;-3.276;2023-01-26T11:54:25;102747.10;;;0.50;72.03
74079;BME280;62437;51.544;-3.276;2023-01-26T11:56:48;102754.42;;;0.59;71.54
74079;BME280;62437;51.544;-3.276;2023-01-26T11:59:10;102745.47;;;0.04;77.08
74079;BME280;62437;51.544;-3.276;2023-01-26T12:01:37;102753.28;;;0.41;76.45
74079;BME280;62437;51.544;-3.276;2023-01-26T12:03:57;102742.08;;;-0.20;74.86
74079;BME280;62437;51.544;-3.276;2023-01-26T12:06:28;102742.44;;;0.35;73.04
74079;BME280;62437;51.544;-3.276;2023-01-26T12:08:53;102733.53;;;0.33;72.93
74079;BME280;62437;51.544;-3.276;2023-01-26T12:11:19;102736.11;;;0.83;73.83
74079;BME280;62437;51.544;-3.276;2023-01-26T12:13:43;102742.21;;;0.12;73.02
74079;BME280;62437;51.544;-3.276;2023-01-26T12:16:12;102737.84;;;0.39;77.47
74079;BME280;62437;51.544;-3.276;2023-01-26T12:18:35;102738.72;;;0.25;73.10
74079;BME280;62437;51.544;-3.276;2023-01-26T12:21:02;102729.97;;;1.11;72.81
74079;BME280;62437;51.544;-3.276;2023-01-26T12:23:29;102723.75;;;1.03;74.00
74079;BME280;62437;51.544;-3.276;2023-01-26T12:25:54;102729.95;;;0.78;72.35
74079;BME280;62437;51.544;-3.276;2023-01-26T12:28:19;102722.00;;;1.07;74.59
74079;BME280;62437;51.544;-3.276;2023-01-26T12:30:48;102717.69;;;0.76;71.47
74079;BME280;62437;51.544;-3.276;2023-01-26T12:33:08;102725.27;;;0.57;73.86
74079;BME280;62437;51.544;-3.276;2023-01-26T12:35:43;102722.78;;;-0.05;74.46
74079;BME280;62437;51.544;-3.276;2023-01-26T12:38:03;102720.14;;;0.28;77.45
74079;BME280;62437;51.544;-3.276;2023-01-26T12:40:29;102718.48;;;0.22;76.66
74079;BME280;62437;51.544;-3.276;2023-01-26T12:42:56;102718.62;;;0.40;72.46
74079;BME280;62437;51.544;-3.276;2023-01-26T12:45:19;102730.23;;;-0.42;77.10
74079;BME280;62437;51.544;-3.276;2023-01-26T12:47:43;102724.76;;;0.09;75.61